sensor_id;sensor_type;location;lat;lon;timestamp;P1;durP1;ratioP1;P2;durP2;ratioP2
22131;SDS011;11232;51.748;19.390;2023-04-03T00:01:06;5.33;;;1.93;;
22131;SDS011;11232;51.748;19.390;2023-04-03T00:03:32;3.13;;;1.60;;
22131;SDS011;11232;51.748;19.390;2023-04-03T00:05:58;3.77;;;1.73;;
22131;SDS011;11232;51.748;19.390;2023-04-03T00:08:24;3.27;;;1.67;;
22131;SDS011;11232;51.748;19.390;2023-04-03T00:10:51;5.73;;;1.80;;
22131;SDS011;11232;51.748;19.390;2023-04-03T00:13:17;2.27;;;1.50;;
22131;SDS011;11232;51.748;19.390;2023-04-03T00:15:43;2.10;;;1.27;;
22131;SDS011;11232;51.748;19.390;2023-04-03T00:18:09;6.90;;;2.07;;
22131;SDS011;11232;51.748;19.390;2023-04-03T00:20:35;3.17;;;1.40;;
22131;SDS011;11232;51.748;19.390;2023-04-03T00:23:02;8.00;;;2.20;;
22131;SDS011;11232;51.748;19.390;2023-04-03T00:25:28;2.77;;;1.57;;
22131;SDS011;11232;51.748;19.390;2023-04-03T00:27:54;6.27;;;1.70;;
22131;SDS011;11232;51.748;19.390;2023-04-03T00:30:20;2.83;;;1.47;;
22131;SDS011;11232;51.748;19.390;2023-04-03T00:32:47;2.33;;;1.63;;
22131;SDS011;11232;51.748;19.390;2023-04-03T00:35:13;2.67;;;1.20;;
22131;SDS011;11232;51.748;19.390;2023-04-03T00:37:41;6.10;;;2.10;;
22131;SDS011;11232;51.748;19.390;2023-04-03T00:40:08;2.33;;;1.50;;
22131;SDS011;11232;51.748;19.390;2023-04-03T00:42:36;2.37;;;1.87;;
22131;SDS011;11232;51.748;19.390;2023-04-03T00:47:28;4.07;;;1.67;;
22131;SDS011;11232;51.748;19.390;2023-04-03T00:49:55;4.73;;;1.50;;
22131;SDS011;11232;51.748;19.390;2023-04-03T00:52:22;3.40;;;1.37;;
22131;SDS011;11232;51.748;19.390;2023-04-03T00:54:50;3.63;;;1.60;;
22131;SDS011;11232;51.748;19.390;2023-04-03T00:57:17;8.23;;;2.27;;
22131;SDS011;11232;51.748;19.390;2023-04-03T00:59:44;2.73;;;1.70;;
22131;SDS011;11232;51.748;19.390;2023-04-03T01:02:12;3.20;;;1.93;;
22131;SDS011;11232;51.748;19.390;2023-04-03T01:04:39;2.87;;;1.60;;
22131;SDS011;11232;51.748;19.390;2023-04-03T01:07:11;5.33;;;2.00;;
22131;SDS011;11232;51.748;19.390;2023-04-03T01:09:38;3.93;;;1.90;;
22131;SDS011;11232;51.748;19.390;2023-04-03T01:14:41;2.87;;;1.70;;
22131;SDS011;11232;51.748;19.390;2023-04-03T01:19:53;5.97;;;1.80;;
22131;SDS011;11232;51.748;19.390;2023-04-03T01:22:25;6.30;;;2.07;;
22131;SDS011;11232;51.748;19.390;2023-04-03T01:24:56;2.60;;;1.70;;
22131;SDS011;11232;51.748;19.390;2023-04-03T01:27:22;3.97;;;1.80;;
22131;SDS011;11232;51.748;19.390;2023-04-03T01:29:48;3.27;;;1.43;;
22131;SDS011;11232;51.748;19.390;2023-04-03T01:32:14;1.80;;;1.60;;
22131;SDS011;11232;51.748;19.390;2023-04-03T01:34:40;5.47;;;1.90;;
22131;SDS011;11232;51.748;19.390;2023-04-03T01:37:06;4.00;;;1.80;;
22131;SDS011;11232;51.748;19.390;2023-04-03T01:39:32;4.37;;;1.50;;
22131;SDS011;11232;51.748;19.390;2023-04-03T01:41:58;4.97;;;1.90;;
22131;SDS011;11232;51.748;19.390;2023-04-03T01:44:24;5.93;;;1.57;;
22131;SDS011;11232;51.748;19.390;2023-04-03T01:46:50;2.97;;;1.67;;
22131;SDS011;11232;51.748;19.390;2023-04-03T01:49:16;3.67;;;1.80;;
22131;SDS011;11232;51.748;19.390;2023-04-03T01:51:42;7.50;;;2.27;;
22131;SDS011;11232;51.748;19.390;2023-04-03T01:54:08;4.27;;;1.67;;
22131;SDS011;11232;51.748;19.390;2023-04-03T01:56:34;3.83;;;1.83;;
22131;SDS011;11232;51.748;19.390;2023-04-03T01:59:00;6.17;;;1.60;;
22131;SDS011;11232;51.748;19.390;2023-04-03T02:01:26;2.70;;;1.40;;
22131;SDS011;11232;51.748;19.390;2023-04-03T02:03:52;4.93;;;1.73;;
22131;SDS011;11232;51.748;19.390;2023-04-03T02:06:18;3.33;;;1.60;;
22131;SDS011;11232;51.748;19.390;2023-04-03T02:08:44;2.63;;;1.53;;
22131;SDS011;11232;51.748;19.390;2023-04-03T02:11:10;3.13;;;1.30;;
22131;SDS011;11232;51.748;19.390;2023-04-03T02:13:36;3.97;;;1.90;;
22131;SDS011;11232;51.748;19.390;2023-04-03T02:16:09;3.47;;;2.07;;
22131;SDS011;11232;51.748;19.390;2023-04-03T02:18:35;7.00;;;2.30;;
22131;SDS011;11232;51.748;19.390;2023-04-03T02:21:01;3.77;;;1.80;;
22131;SDS011;11232;51.748;19.390;2023-04-03T02:23:27;4.10;;;1.63;;
22131;SDS011;11232;51.748;19.390;2023-04-03T02:26:01;7.03;;;1.57;;
22131;SDS011;11232;51.748;19.390;2023-04-03T02:28:28;2.20;;;1.30;;
22131;SDS011;11232;51.748;19.390;2023-04-03T02:30:54;7.20;;;2.13;;
22131;SDS011;11232;51.748;19.390;2023-04-03T02:33:20;5.83;;;1.80;;
22131;SDS011;11232;51.748;19.390;2023-04-03T02:35:46;2.70;;;1.90;;
22131;SDS011;11232;51.748;19.390;2023-04-03T02:38:18;4.13;;;1.80;;
22131;SDS011;11232;51.748;19.390;2023-04-03T02:40:44;3.27;;;1.50;;
22131;SDS011;11232;51.748;19.390;2023-04-03T02:43:10;3.07;;;1.60;;
22131;SDS011;11232;51.748;19.390;2023-04-03T02:45:36;4.10;;;1.63;;
22131;SDS011;11232;51.748;19.390;2023-04-03T02:48:02;6.67;;;2.20;;
22131;SDS011;11232;51.748;19.390;2023-04-03T02:50:28;4.07;;;1.90;;
22131;SDS011;11232;51.748;19.390;2023-04-03T02:52:54;4.40;;;1.77;;
22131;SDS011;11232;51.748;19.390;2023-04-03T02:55:20;4.30;;;1.47;;
22131;SDS011;11232;51.748;19.390;2023-04-03T02:57:46;2.73;;;1.70;;
22131;SDS011;11232;51.748;19.390;2023-04-03T03:00:12;5.53;;;1.90;;
22131;SDS011;11232;51.748;19.390;2023-04-03T03:02:39;2.80;;;1.63;;
22131;SDS011;11232;51.748;19.390;2023-04-03T03:05:05;4.97;;;1.57;;
22131;SDS011;11232;51.748;19.390;2023-04-03T03:07:32;3.33;;;1.43;;
22131;SDS011;11232;51.748;19.390;2023-04-03T03:09:58;4.50;;;1.67;;
22131;SDS011;11232;51.748;19.390;2023-04-03T03:12:24;5.97;;;1.60;;
22131;SDS011;11232;51.748;19.390;2023-04-03T03:14:50;5.63;;;1.80;;
22131;SDS011;11232;51.748;19.390;2023-04-03T03:17:16;5.93;;;1.67;;
22131;SDS011;11232;51.748;19.390;2023-04-03T03:19:42;2.57;;;1.80;;
22131;SDS011;11232;51.748;19.390;2023-04-03T03:22:08;5.83;;;1.80;;
22131;SDS011;11232;51.748;19.390;2023-04-03T03:24:35;5.27;;;1.97;;
22131;SDS011;11232;51.748;19.390;2023-04-03T03:27:01;5.03;;;1.77;;
22131;SDS011;11232;51.748;19.390;2023-04-03T03:29:27;4.23;;;1.97;;
22131;SDS011;11232;51.748;19.390;2023-04-03T03:31:53;4.47;;;1.83;;
22131;SDS011;11232;51.748;19.390;2023-04-03T03:34:19;6.70;;;1.73;;
22131;SDS011;11232;51.748;19.390;2023-04-03T03:36:45;5.27;;;2.03;;
22131;SDS011;11232;51.748;19.390;2023-04-03T03:39:11;3.40;;;1.87;;
22131;SDS011;11232;51.748;19.390;2023-04-03T03:41:37;6.17;;;2.03;;
22131;SDS011;11232;51.748;19.390;2023-04-03T03:44:03;3.13;;;1.67;;
22131;SDS011;11232;51.748;19.390;2023-04-03T03:46:29;3.43;;;1.80;;
22131;SDS011;11232;51.748;19.390;2023-04-03T03:48:55;5.13;;;1.83;;
22131;SDS011;11232;51.748;19.390;2023-04-03T03:51:21;4.77;;;1.90;;
22131;SDS011;11232;51.748;19.390;2023-04-03T03:53:47;8.17;;;2.00;;
22131;SDS011;11232;51.748;19.390;2023-04-03T03:56:13;6.23;;;1.83;;
22131;SDS011;11232;51.748;19.390;2023-04-03T03:58:39;2.23;;;1.70;;
22131;SDS011;11232;51.748;19.390;2023-04-03T04:01:06;3.40;;;1.87;;
22131;SDS011;11232;51.748;19.390;2023-04-03T04:03:32;3.43;;;1.90;;
22131;SDS011;11232;51.748;19.390;2023-04-03T04:05:58;5.70;;;2.17;;
22131;SDS011;11232;51.748;19.390;2023-04-03T04:08:24;6.70;;;2.07;;
22131;SDS011;11232;51.748;19.390;2023-04-03T04:10:50;2.70;;;1.73;;
22131;SDS011;11232;51.748;19.390;2023-04-03T04:13:16;2.47;;;1.80;;
22131;SDS011;11232;51.748;19.390;2023-04-03T04:15:42;4.63;;;1.77;;
22131;SDS011;11232;51.748;19.390;2023-04-03T04:18:09;4.03;;;2.50;;
22131;SDS011;11232;51.748;19.390;2023-04-03T04:20:35;3.53;;;2.30;;
22131;SDS011;11232;51.748;19.390;2023-04-03T04:23:01;4.20;;;2.20;;
22131;SDS011;11232;51.748;19.390;2023-04-03T04:25:27;3.80;;;2.13;;
22131;SDS011;11232;51.748;19.390;2023-04-03T04:27:53;4.57;;;2.23;;
22131;SDS011;11232;51.748;19.390;2023-04-03T04:30:19;3.70;;;1.80;;
22131;SDS011;11232;51.748;19.390;2023-04-03T04:32:45;6.30;;;2.10;;
22131;SDS011;11232;51.748;19.390;2023-04-03T04:35:11;5.03;;;2.30;;
22131;SDS011;11232;51.748;19.390;2023-04-03T04:37:37;7.33;;;2.43;;
22131;SDS011;11232;51.748;19.390;2023-04-03T04:40:03;9.00;;;2.60;;
22131;SDS011;11232;51.748;19.390;2023-04-03T04:42:29;4.13;;;2.00;;
22131;SDS011;11232;51.748;19.390;2023-04-03T04:44:55;4.23;;;2.60;;
22131;SDS011;11232;51.748;19.390;2023-04-03T04:47:21;7.90;;;2.93;;
22131;SDS011;11232;51.748;19.390;2023-04-03T04:49:47;11.20;;;2.40;;
22131;SDS011;11232;51.748;19.390;2023-04-03T04:52:14;7.53;;;2.90;;
22131;SDS011;11232;51.748;19.390;2023-04-03T04:54:40;5.67;;;2.40;;
22131;SDS011;11232;51.748;19.390;2023-04-03T04:57:06;8.50;;;2.67;;
22131;SDS011;11232;51.748;19.390;2023-04-03T04:59:32;6.13;;;2.60;;
22131;SDS011;11232;51.748;19.390;2023-04-03T05:01:57;4.50;;;2.47;;
22131;SDS011;11232;51.748;19.390;2023-04-03T05:04:23;6.37;;;2.70;;
22131;SDS011;11232;51.748;19.390;2023-04-03T05:06:49;5.53;;;2.30;;
22131;SDS011;11232;51.748;19.390;2023-04-03T05:09:16;2.20;;;1.83;;
22131;SDS011;11232;51.748;19.390;2023-04-03T05:11:42;4.93;;;2.03;;
22131;SDS011;11232;51.748;19.390;2023-04-03T05:14:08;3.30;;;2.20;;
22131;SDS011;11232;51.748;19.390;2023-04-03T05:16:34;6.87;;;3.30;;
22131;SDS011;11232;51.748;19.390;2023-04-03T05:19:00;7.10;;;2.70;;
22131;SDS011;11232;51.748;19.390;2023-04-03T05:21:26;4.83;;;2.70;;
22131;SDS011;11232;51.748;19.390;2023-04-03T05:23:56;6.53;;;2.57;;
22131;SDS011;11232;51.748;19.390;2023-04-03T05:26:22;5.23;;;2.60;;
22131;SDS011;11232;51.748;19.390;2023-04-03T05:28:48;6.63;;;2.33;;
22131;SDS011;11232;51.748;19.390;2023-04-03T05:31:14;3.07;;;2.10;;
22131;SDS011;11232;51.748;19.390;2023-04-03T05:33:40;6.27;;;2.23;;
22131;SDS011;11232;51.748;19.390;2023-04-03T05:36:06;4.97;;;2.30;;
22131;SDS011;11232;51.748;19.390;2023-04-03T05:38:32;7.17;;;2.90;;
22131;SDS011;11232;51.748;19.390;2023-04-03T05:40:58;4.83;;;2.60;;
22131;SDS011;11232;51.748;19.390;2023-04-03T05:43:25;5.30;;;2.27;;
22131;SDS011;11232;51.748;19.390;2023-04-03T05:45:51;6.13;;;2.47;;
22131;SDS011;11232;51.748;19.390;2023-04-03T05:48:17;3.70;;;2.60;;
22131;SDS011;11232;51.748;19.390;2023-04-03T05:50:43;6.23;;;2.63;;
22131;SDS011;11232;51.748;19.390;2023-04-03T05:53:24;6.13;;;2.57;;
22131;SDS011;11232;51.748;19.390;2023-04-03T05:55:52;3.90;;;2.50;;
22131;SDS011;11232;51.748;19.390;2023-04-03T05:58:18;6.67;;;2.87;;
22131;SDS011;11232;51.748;19.390;2023-04-03T06:00:44;3.50;;;2.40;;
22131;SDS011;11232;51.748;19.390;2023-04-03T06:03:11;4.37;;;2.60;;
22131;SDS011;11232;51.748;19.390;2023-04-03T06:05:37;3.57;;;2.50;;
22131;SDS011;11232;51.748;19.390;2023-04-03T06:08:03;6.67;;;2.33;;
22131;SDS011;11232;51.748;19.390;2023-04-03T06:10:29;8.00;;;2.73;;
22131;SDS011;11232;51.748;19.390;2023-04-03T06:12:55;3.90;;;2.70;;
22131;SDS011;11232;51.748;19.390;2023-04-03T06:15:21;6.33;;;2.57;;
22131;SDS011;11232;51.748;19.390;2023-04-03T06:17:47;10.63;;;3.33;;
22131;SDS011;11232;51.748;19.390;2023-04-03T06:20:13;6.80;;;3.23;;
22131;SDS011;11232;51.748;19.390;2023-04-03T06:22:39;5.77;;;2.80;;
22131;SDS011;11232;51.748;19.390;2023-04-03T06:25:06;4.93;;;2.47;;
22131;SDS011;11232;51.748;19.390;2023-04-03T06:27:33;3.93;;;2.60;;
22131;SDS011;11232;51.748;19.390;2023-04-03T06:29:59;5.10;;;2.73;;
22131;SDS011;11232;51.748;19.390;2023-04-03T06:32:25;6.30;;;2.53;;
22131;SDS011;11232;51.748;19.390;2023-04-03T06:34:51;3.73;;;2.10;;
22131;SDS011;11232;51.748;19.390;2023-04-03T06:37:19;3.90;;;2.63;;
22131;SDS011;11232;51.748;19.390;2023-04-03T06:39:45;7.23;;;2.90;;
22131;SDS011;11232;51.748;19.390;2023-04-03T06:42:11;6.80;;;2.90;;
22131;SDS011;11232;51.748;19.390;2023-04-03T06:44:38;4.17;;;2.50;;
22131;SDS011;11232;51.748;19.390;2023-04-03T06:47:04;7.10;;;2.60;;
22131;SDS011;11232;51.748;19.390;2023-04-03T06:49:30;4.07;;;2.30;;
22131;SDS011;11232;51.748;19.390;2023-04-03T06:51:56;6.30;;;2.37;;
22131;SDS011;11232;51.748;19.390;2023-04-03T06:54:23;3.53;;;2.30;;
22131;SDS011;11232;51.748;19.390;2023-04-03T06:56:49;6.50;;;2.27;;
22131;SDS011;11232;51.748;19.390;2023-04-03T06:59:15;2.90;;;2.27;;
22131;SDS011;11232;51.748;19.390;2023-04-03T07:01:45;5.73;;;1.93;;
22131;SDS011;11232;51.748;19.390;2023-04-03T07:04:12;7.00;;;2.57;;
22131;SDS011;11232;51.748;19.390;2023-04-03T07:06:38;3.30;;;1.73;;
22131;SDS011;11232;51.748;19.390;2023-04-03T07:09:04;2.50;;;1.43;;
22131;SDS011;11232;51.748;19.390;2023-04-03T07:11:30;5.23;;;1.60;;
22131;SDS011;11232;51.748;19.390;2023-04-03T07:13:56;3.37;;;1.70;;
22131;SDS011;11232;51.748;19.390;2023-04-03T07:16:22;4.53;;;2.00;;
22131;SDS011;11232;51.748;19.390;2023-04-03T07:18:51;4.77;;;2.07;;
22131;SDS011;11232;51.748;19.390;2023-04-03T07:21:17;2.30;;;1.70;;
22131;SDS011;11232;51.748;19.390;2023-04-03T07:23:43;2.73;;;2.07;;
22131;SDS011;11232;51.748;19.390;2023-04-03T07:26:09;4.07;;;1.97;;
22131;SDS011;11232;51.748;19.390;2023-04-03T07:28:35;3.37;;;1.63;;
22131;SDS011;11232;51.748;19.390;2023-04-03T07:31:03;3.47;;;2.00;;
22131;SDS011;11232;51.748;19.390;2023-04-03T07:33:29;4.00;;;1.70;;
22131;SDS011;11232;51.748;19.390;2023-04-03T07:35:56;2.67;;;1.80;;
22131;SDS011;11232;51.748;19.390;2023-04-03T07:38:22;2.87;;;1.80;;
22131;SDS011;11232;51.748;19.390;2023-04-03T07:40:48;4.60;;;1.87;;
22131;SDS011;11232;51.748;19.390;2023-04-03T07:43:15;4.63;;;1.90;;
22131;SDS011;11232;51.748;19.390;2023-04-03T07:45:42;3.00;;;1.70;;
22131;SDS011;11232;51.748;19.390;2023-04-03T07:48:08;4.13;;;1.70;;
22131;SDS011;11232;51.748;19.390;2023-04-03T07:50:34;3.83;;;1.67;;
22131;SDS011;11232;51.748;19.390;2023-04-03T07:53:01;2.40;;;1.60;;
22131;SDS011;11232;51.748;19.390;2023-04-03T07:55:27;2.45;;;1.65;;
22131;SDS011;11232;51.748;19.390;2023-04-03T07:57:53;4.30;;;1.70;;
22131;SDS011;11232;51.748;19.390;2023-04-03T08:00:19;5.00;;;1.55;;
22131;SDS011;11232;51.748;19.390;2023-04-03T08:02:45;3.00;;;1.73;;
22131;SDS011;11232;51.748;19.390;2023-04-03T08:05:16;5.68;;;2.10;;
22131;SDS011;11232;51.748;19.390;2023-04-03T08:07:42;2.85;;;1.90;;
22131;SDS011;11232;51.748;19.390;2023-04-03T08:10:08;2.63;;;1.75;;
22131;SDS011;11232;51.748;19.390;2023-04-03T08:12:34;2.03;;;1.60;;
22131;SDS011;11232;51.748;19.390;2023-04-03T08:15:02;4.22;;;2.03;;
22131;SDS011;11232;51.748;19.390;2023-04-03T08:17:28;2.10;;;1.65;;
22131;SDS011;11232;51.748;19.390;2023-04-03T08:19:54;2.40;;;1.77;;
22131;SDS011;11232;51.748;19.390;2023-04-03T08:22:20;3.22;;;1.77;;
22131;SDS011;11232;51.748;19.390;2023-04-03T08:24:46;2.40;;;1.60;;
22131;SDS011;11232;51.748;19.390;2023-04-03T08:27:12;3.53;;;1.83;;
22131;SDS011;11232;51.748;19.390;2023-04-03T08:29:38;4.22;;;2.30;;
22131;SDS011;11232;51.748;19.390;2023-04-03T08:32:04;2.47;;;1.58;;
22131;SDS011;11232;51.748;19.390;2023-04-03T08:34:31;2.95;;;1.75;;
22131;SDS011;11232;51.748;19.390;2023-04-03T08:37:01;3.75;;;2.15;;
22131;SDS011;11232;51.748;19.390;2023-04-03T08:39:27;3.38;;;2.03;;
22131;SDS011;11232;51.748;19.390;2023-04-03T08:41:55;4.78;;;1.55;;
22131;SDS011;11232;51.748;19.390;2023-04-03T08:46:57;2.90;;;1.60;;
22131;SDS011;11232;51.748;19.390;2023-04-03T08:49:42;2.80;;;1.70;;
22131;SDS011;11232;51.748;19.390;2023-04-03T08:52:13;2.85;;;1.88;;
22131;SDS011;11232;51.748;19.390;2023-04-03T08:57:12;3.33;;;1.70;;
22131;SDS011;11232;51.748;19.390;2023-04-03T08:59:38;3.17;;;1.73;;
22131;SDS011;11232;51.748;19.390;2023-04-03T09:02:17;3.17;;;1.80;;
22131;SDS011;11232;51.748;19.390;2023-04-03T09:04:43;3.78;;;1.65;;
22131;SDS011;11232;51.748;19.390;2023-04-03T09:07:14;1.98;;;1.58;;
22131;SDS011;11232;51.748;19.390;2023-04-03T09:09:45;2.08;;;1.50;;
22131;SDS011;11232;51.748;19.390;2023-04-03T09:12:23;4.28;;;1.75;;
22131;SDS011;11232;51.748;19.390;2023-04-03T09:15:02;2.42;;;1.50;;
22131;SDS011;11232;51.748;19.390;2023-04-03T09:19:58;2.08;;;1.38;;
22131;SDS011;11232;51.748;19.390;2023-04-03T09:22:28;1.67;;;1.20;;
22131;SDS011;11232;51.748;19.390;2023-04-03T09:25:03;3.22;;;1.50;;
22131;SDS011;11232;51.748;19.390;2023-04-03T09:27:31;2.90;;;1.40;;
22131;SDS011;11232;51.748;19.390;2023-04-03T09:29:57;2.28;;;1.70;;
22131;SDS011;11232;51.748;19.390;2023-04-03T09:34:52;2.70;;;1.70;;
22131;SDS011;11232;51.748;19.390;2023-04-03T09:37:53;1.67;;;1.38;;
22131;SDS011;11232;51.748;19.390;2023-04-03T09:40:28;2.45;;;1.10;;
22131;SDS011;11232;51.748;19.390;2023-04-03T09:43:40;2.58;;;1.33;;
22131;SDS011;11232;51.748;19.390;2023-04-03T09:45:41;5.38;;;1.52;;
22131;SDS011;11232;51.748;19.390;2023-04-03T09:48:16;2.00;;;1.00;;
22131;SDS011;11232;51.748;19.390;2023-04-03T09:53:28;3.65;;;2.00;;
22131;SDS011;11232;51.748;19.390;2023-04-03T09:55:54;2.50;;;1.80;;
22131;SDS011;11232;51.748;19.390;2023-04-03T09:58:27;1.58;;;1.27;;
22131;SDS011;11232;51.748;19.390;2023-04-03T10:00:55;2.33;;;1.63;;
22131;SDS011;11232;51.748;19.390;2023-04-03T10:03:42;3.42;;;1.67;;
22131;SDS011;11232;51.748;19.390;2023-04-03T10:06:23;1.67;;;1.30;;
22131;SDS011;11232;51.748;19.390;2023-04-03T10:08:59;2.30;;;1.70;;
22131;SDS011;11232;51.748;19.390;2023-04-03T10:11:26;2.95;;;1.58;;
22131;SDS011;11232;51.748;19.390;2023-04-03T10:13:56;3.20;;;1.27;;
22131;SDS011;11232;51.748;19.390;2023-04-03T10:16:25;2.92;;;1.58;;
22131;SDS011;11232;51.748;19.390;2023-04-03T10:24:00;2.42;;;1.55;;
22131;SDS011;11232;51.748;19.390;2023-04-03T10:44:31;3.35;;;1.60;;
22131;SDS011;11232;51.748;19.390;2023-04-03T10:50:20;1.17;;;1.00;;
22131;SDS011;11232;51.748;19.390;2023-04-03T10:54:57;2.15;;;1.10;;
22131;SDS011;11232;51.748;19.390;2023-04-03T10:57:24;3.97;;;1.45;;
22131;SDS011;11232;51.748;19.390;2023-04-03T11:00:27;1.45;;;1.30;;
22131;SDS011;11232;51.748;19.390;2023-04-03T11:05:21;1.70;;;1.25;;
22131;SDS011;11232;51.748;19.390;2023-04-03T11:07:51;2.30;;;1.20;;
22131;SDS011;11232;51.748;19.390;2023-04-03T11:10:22;2.17;;;1.33;;
22131;SDS011;11232;51.748;19.390;2023-04-03T11:12:54;1.55;;;1.33;;
22131;SDS011;11232;51.748;19.390;2023-04-03T11:15:22;2.47;;;1.48;;
22131;SDS011;11232;51.748;19.390;2023-04-03T11:17:58;8.73;;;1.70;;
22131;SDS011;11232;51.748;19.390;2023-04-03T11:20:29;3.72;;;1.70;;
22131;SDS011;11232;51.748;19.390;2023-04-03T11:25:25;1.70;;;1.17;;
22131;SDS011;11232;51.748;19.390;2023-04-03T11:27:58;2.83;;;1.30;;
22131;SDS011;11232;51.748;19.390;2023-04-03T11:30:29;2.05;;;1.17;;
22131;SDS011;11232;51.748;19.390;2023-04-03T11:35:27;1.73;;;1.33;;
22131;SDS011;11232;51.748;19.390;2023-04-03T11:37:53;3.33;;;1.23;;
22131;SDS011;11232;51.748;19.390;2023-04-03T11:42:46;1.45;;;1.20;;
22131;SDS011;11232;51.748;19.390;2023-04-03T11:45:33;1.17;;;0.98;;
22131;SDS011;11232;51.748;19.390;2023-04-03T11:48:01;2.33;;;1.20;;
22131;SDS011;11232;51.748;19.390;2023-04-03T11:53:01;1.85;;;1.10;;
22131;SDS011;11232;51.748;19.390;2023-04-03T12:05:50;3.17;;;1.33;;
22131;SDS011;11232;51.748;19.390;2023-04-03T12:11:44;1.40;;;1.30;;
22131;SDS011;11232;51.748;19.390;2023-04-03T12:16:24;2.53;;;1.30;;
22131;SDS011;11232;51.748;19.390;2023-04-03T12:26:40;2.28;;;1.30;;
22131;SDS011;11232;51.748;19.390;2023-04-03T12:40:10;2.90;;;1.10;;
22131;SDS011;11232;51.748;19.390;2023-04-03T12:45:26;1.50;;;1.30;;
22131;SDS011;11232;51.748;19.390;2023-04-03T12:47:53;3.42;;;1.25;;
22131;SDS011;11232;51.748;19.390;2023-04-03T12:50:21;2.45;;;1.38;;
22131;SDS011;11232;51.748;19.390;2023-04-03T12:55:21;2.05;;;1.65;;
22131;SDS011;11232;51.748;19.390;2023-04-03T12:57:47;1.45;;;1.27;;
22131;SDS011;11232;51.748;19.390;2023-04-03T13:00:20;1.80;;;1.40;;
22131;SDS011;11232;51.748;19.390;2023-04-03T13:02:47;2.00;;;1.23;;
22131;SDS011;11232;51.748;19.390;2023-04-03T13:05:16;4.70;;;1.63;;
22131;SDS011;11232;51.748;19.390;2023-04-03T13:07:42;1.52;;;1.05;;
22131;SDS011;11232;51.748;19.390;2023-04-03T13:12:48;4.03;;;1.40;;
22131;SDS011;11232;51.748;19.390;2023-04-03T13:15:16;2.23;;;1.37;;
22131;SDS011;11232;51.748;19.390;2023-04-03T13:17:43;2.07;;;1.50;;
22131;SDS011;11232;51.748;19.390;2023-04-03T13:20:10;2.20;;;1.63;;
22131;SDS011;11232;51.748;19.390;2023-04-03T13:22:38;2.63;;;2.00;;
22131;SDS011;11232;51.748;19.390;2023-04-03T13:25:09;2.17;;;1.93;;
22131;SDS011;11232;51.748;19.390;2023-04-03T13:27:35;2.43;;;1.40;;
22131;SDS011;11232;51.748;19.390;2023-04-03T13:30:02;1.90;;;1.43;;
22131;SDS011;11232;51.748;19.390;2023-04-03T13:32:29;3.70;;;1.73;;
22131;SDS011;11232;51.748;19.390;2023-04-03T13:34:56;2.03;;;1.57;;
22131;SDS011;11232;51.748;19.390;2023-04-03T13:37:27;2.73;;;1.30;;
22131;SDS011;11232;51.748;19.390;2023-04-03T13:39:58;2.80;;;1.80;;
22131;SDS011;11232;51.748;19.390;2023-04-03T13:42:28;5.17;;;1.80;;
22131;SDS011;11232;51.748;19.390;2023-04-03T13:47:40;2.73;;;1.33;;
22131;SDS011;11232;51.748;19.390;2023-04-03T13:50:14;3.27;;;1.40;;
22131;SDS011;11232;51.748;19.390;2023-04-03T13:52:54;2.30;;;1.30;;
22131;SDS011;11232;51.748;19.390;2023-04-03T13:55:22;2.30;;;1.40;;
22131;SDS011;11232;51.748;19.390;2023-04-03T13:58:00;2.73;;;1.43;;
22131;SDS011;11232;51.748;19.390;2023-04-03T14:00:35;1.67;;;1.30;;
22131;SDS011;11232;51.748;19.390;2023-04-03T14:03:02;2.27;;;1.30;;
22131;SDS011;11232;51.748;19.390;2023-04-03T14:05:28;1.93;;;1.43;;
22131;SDS011;11232;51.748;19.390;2023-04-03T14:07:54;2.70;;;1.60;;
22131;SDS011;11232;51.748;19.390;2023-04-03T14:10:21;3.87;;;1.67;;
22131;SDS011;11232;51.748;19.390;2023-04-03T14:12:47;1.57;;;1.47;;
22131;SDS011;11232;51.748;19.390;2023-04-03T14:15:20;2.77;;;1.47;;
22131;SDS011;11232;51.748;19.390;2023-04-03T14:17:48;3.87;;;2.40;;
22131;SDS011;11232;51.748;19.390;2023-04-03T14:20:16;1.90;;;1.50;;
22131;SDS011;11232;51.748;19.390;2023-04-03T14:22:43;2.47;;;1.67;;
22131;SDS011;11232;51.748;19.390;2023-04-03T14:25:09;3.77;;;1.63;;
22131;SDS011;11232;51.748;19.390;2023-04-03T14:27:36;3.93;;;1.70;;
22131;SDS011;11232;51.748;19.390;2023-04-03T14:30:03;2.33;;;1.53;;
22131;SDS011;11232;51.748;19.390;2023-04-03T14:32:29;2.28;;;1.40;;
22131;SDS011;11232;51.748;19.390;2023-04-03T14:34:55;1.77;;;1.50;;
22131;SDS011;11232;51.748;19.390;2023-04-03T14:37:24;2.73;;;1.30;;
22131;SDS011;11232;51.748;19.390;2023-04-03T14:39:51;2.37;;;1.13;;
22131;SDS011;11232;51.748;19.390;2023-04-03T14:42:22;2.30;;;1.10;;
22131;SDS011;11232;51.748;19.390;2023-04-03T14:44:48;2.37;;;1.20;;
22131;SDS011;11232;51.748;19.390;2023-04-03T14:47:19;2.57;;;1.43;;
22131;SDS011;11232;51.748;19.390;2023-04-03T14:49:45;3.17;;;1.53;;
22131;SDS011;11232;51.748;19.390;2023-04-03T14:52:16;3.37;;;1.40;;
22131;SDS011;11232;51.748;19.390;2023-04-03T14:54:43;1.97;;;1.30;;
22131;SDS011;11232;51.748;19.390;2023-04-03T14:57:09;1.50;;;1.10;;
22131;SDS011;11232;51.748;19.390;2023-04-03T14:59:37;7.40;;;1.93;;
22131;SDS011;11232;51.748;19.390;2023-04-03T15:02:08;1.90;;;1.47;;
22131;SDS011;11232;51.748;19.390;2023-04-03T15:04:36;2.57;;;1.37;;
22131;SDS011;11232;51.748;19.390;2023-04-03T15:07:02;2.93;;;1.60;;
22131;SDS011;11232;51.748;19.390;2023-04-03T15:09:28;2.83;;;2.00;;
22131;SDS011;11232;51.748;19.390;2023-04-03T15:11:54;3.47;;;1.57;;
22131;SDS011;11232;51.748;19.390;2023-04-03T15:14:20;1.83;;;1.50;;
22131;SDS011;11232;51.748;19.390;2023-04-03T15:16:46;1.90;;;1.30;;
22131;SDS011;11232;51.748;19.390;2023-04-03T15:19:12;1.67;;;1.40;;
22131;SDS011;11232;51.748;19.390;2023-04-03T15:21:39;1.47;;;1.37;;
22131;SDS011;11232;51.748;19.390;2023-04-03T15:24:05;5.47;;;1.63;;
22131;SDS011;11232;51.748;19.390;2023-04-03T15:26:31;2.80;;;1.33;;
22131;SDS011;11232;51.748;19.390;2023-04-03T15:28:57;3.00;;;1.47;;
22131;SDS011;11232;51.748;19.390;2023-04-03T15:31:24;3.60;;;1.57;;
22131;SDS011;11232;51.748;19.390;2023-04-03T15:33:50;1.80;;;1.13;;
22131;SDS011;11232;51.748;19.390;2023-04-03T15:36:16;2.10;;;1.20;;
22131;SDS011;11232;51.748;19.390;2023-04-03T15:38:42;2.97;;;1.53;;
22131;SDS011;11232;51.748;19.390;2023-04-03T15:41:08;4.37;;;1.60;;
22131;SDS011;11232;51.748;19.390;2023-04-03T15:43:34;4.13;;;1.40;;
22131;SDS011;11232;51.748;19.390;2023-04-03T15:46:00;5.37;;;1.63;;
22131;SDS011;11232;51.748;19.390;2023-04-03T15:48:26;3.53;;;1.63;;
22131;SDS011;11232;51.748;19.390;2023-04-03T15:50:53;2.40;;;1.70;;
22131;SDS011;11232;51.748;19.390;2023-04-03T15:53:19;2.70;;;1.43;;
22131;SDS011;11232;51.748;19.390;2023-04-03T15:55:45;4.63;;;1.50;;
22131;SDS011;11232;51.748;19.390;2023-04-03T15:58:11;2.77;;;1.67;;
22131;SDS011;11232;51.748;19.390;2023-04-03T16:00:37;3.03;;;1.17;;
22131;SDS011;11232;51.748;19.390;2023-04-03T16:03:11;5.67;;;1.80;;
22131;SDS011;11232;51.748;19.390;2023-04-03T16:05:37;2.53;;;1.50;;
22131;SDS011;11232;51.748;19.390;2023-04-03T16:08:04;4.30;;;1.60;;
22131;SDS011;11232;51.748;19.390;2023-04-03T16:10:32;3.57;;;1.50;;
22131;SDS011;11232;51.748;19.390;2023-04-03T16:12:58;2.63;;;1.70;;
22131;SDS011;11232;51.748;19.390;2023-04-03T16:15:24;3.70;;;1.50;;
22131;SDS011;11232;51.748;19.390;2023-04-03T16:17:51;6.43;;;1.70;;
22131;SDS011;11232;51.748;19.390;2023-04-03T16:20:18;4.07;;;1.87;;
22131;SDS011;11232;51.748;19.390;2023-04-03T16:22:45;2.33;;;1.77;;